Nashua, MT (59248)

4:27 AM MDT on August 29, 2014 (GMT -0600)
nashua | Change Station
CLOSE
Current Station
Personal Weather Station
Location: Nashua, MT
Elevation: 2156 ft
Nearby Weather Stations
Active Advisory: Flood Warning Active Notice: Local Storm Report

Elev 2156 ft 48.11 °N, 106.45 °W | Updated 26 minutes ago

Mostly Cloudy
Mostly Cloudy
58.3 °F
Feels Like 58.3 °F
N
0.0
Wind Variable Wind from North
Gusts 6.2 mph

Today
High -- | Low -- °F
--% Chance of Precip.
Yesterday
High -- | Low -- °F
Precip. -- in
6:19 AM 7:52 PM
Waxing Crescent, 13% visible
Pressure 29.93 in
Visibility 10.0 miles
Clouds Clear
Dew Point 58 °F
Humidity 100%
Rainfall 0.20 in
Snow Depth Not available.
UV 0 out of 12
Pollen 9.40 out of 12
Air Quality Not available.
Flu Activity Not available.
METAR KGGW 290953Z AUTO 32008KT 10SM CLR 14/13 A2996 RMK AO2 SLP133 T01440133

More Conditions Fewer Conditions

Pressure 29.93 in
Visibility 10.0 miles
Clouds Clear
Dew Point 58 °F
Humidity 100%
Rainfall 0.20 in
Snow Depth Not available.
UV 0 out of 12
Pollen 9.40 out of 12
Air Quality Not available.
Flu Activity Not available.
METAR KGGW 290953Z AUTO 32008KT 10SM CLR 14/13 A2996 RMK AO2 SLP133 T01440133

More Conditions Fewer Conditions

10-Day Weather Forecast

Almanac

Astronomy

Aug. 29, 2014 Rise Set
Actual Time 6:19 AM MDT 7:52 PM MDT
Civil Twilight 5:46 AM MDT 8:24 PM MDT
Nautical Twilight 5:06 AM MDT 9:04 PM MDT
Astronomical Twilight 4:23 AM MDT 9:47 PM MDT
Moon 10:32 AM MDT 9:29 PM MDT
Length of Visible Light 14h 38m
Length of Day
13h 33m
Tomorrow will be 3m 22s shorter.
Waxing Crescent, 13% of the Moon is Illuminated
Today
Waxing Crescent
Sep 2
First Quarter
Sep 8
Full
Sep 15
Last Quarter
Sep 24
New

Today's Extremes

State Highs State Lows

Community

WunderPhotos

Upload Photos

1,748,208 photos uploaded!

Nearby

Snow Depth

Station Depth Elevation
Crystal Lake 1 in 6050 ft
Daisy Peak 0 in 7600 ft
Spur Park 0 in 8100 ft
Deadman Creek 0 in 6450 ft
Onion Park 0 in 7410 ft

Earthquake Activity

City Distance Mag. Time & Date
No recent earthquake activity has been reported nearby.
Minimum magnitude displayed is 2.5.

Coastal Water Temperatures

Place Temperature
No Stations Reporting

Nearby Weather Stations